createdAt,value
2019-01-26T00:01:04.714Z,83.75
2019-01-26T00:03:33.082Z,83.90
2019-01-26T00:06:01.369Z,83.97
2019-01-26T00:08:29.769Z,84.09
2019-01-26T00:10:58.144Z,84.05
2019-01-26T00:13:26.514Z,83.94
2019-01-26T00:15:54.834Z,84.03
2019-01-26T00:18:23.169Z,84.04
2019-01-26T00:20:51.452Z,83.90
2019-01-26T00:23:19.838Z,83.83
2019-01-26T00:25:48.199Z,83.88
2019-01-26T00:28:25.981Z,83.92
2019-01-26T00:30:54.322Z,84.01
2019-01-26T00:33:22.609Z,84.10
2019-01-26T00:35:50.994Z,84.13
2019-01-26T00:38:19.284Z,83.94
2019-01-26T00:40:47.560Z,83.90
2019-01-26T00:43:15.954Z,83.83
2019-01-26T00:45:44.248Z,83.67
2019-01-26T00:48:12.539Z,83.42
2019-01-26T00:50:40.891Z,83.38
2019-01-26T00:53:09.173Z,83.43
2019-01-26T00:55:37.466Z,82.88
2019-01-26T00:58:05.875Z,83.04
2019-01-26T01:00:34.167Z,82.96
2019-01-26T01:03:02.530Z,82.86
2019-01-26T01:05:30.925Z,82.70
2019-01-26T01:07:59.274Z,82.82
2019-01-26T01:10:27.571Z,82.83
2019-01-26T01:12:55.881Z,82.83
2019-01-26T01:15:24.173Z,82.80
2019-01-26T01:17:52.456Z,82.94
2019-01-26T01:20:20.859Z,82.97
2019-01-26T01:22:49.204Z,83.22
2019-01-26T01:25:17.508Z,83.52
2019-01-26T01:27:45.839Z,83.48
2019-01-26T01:30:20.144Z,83.34
2019-01-26T01:32:48.491Z,83.36
2019-01-26T01:35:17.278Z,83.46
2019-01-26T01:37:45.573Z,83.23
2019-01-26T01:40:15.720Z,82.89
2019-01-26T01:42:44.101Z,82.96
2019-01-26T01:45:15.695Z,82.98
2019-01-26T01:47:44.122Z,82.84
2019-01-26T01:50:12.520Z,82.88
2019-01-26T01:52:40.951Z,82.60
2019-01-26T01:55:10.363Z,82.63
2019-01-26T01:57:38.678Z,82.99
2019-01-26T02:00:10.480Z,83.10
2019-01-26T02:02:38.829Z,83.00
2019-01-26T02:05:08.020Z,82.80
2019-01-26T02:07:36.301Z,82.90
2019-01-26T02:10:07.173Z,82.78
2019-01-26T02:12:35.469Z,82.41
2019-01-26T02:15:04.508Z,82.74
2019-01-26T02:17:32.835Z,82.66
2019-01-26T02:20:01.116Z,82.63
2019-01-26T02:22:29.400Z,82.61
2019-01-26T02:24:57.723Z,82.72
2019-01-26T02:27:26.002Z,82.55
2019-01-26T02:29:54.289Z,82.53
2019-01-26T02:32:22.611Z,82.72
2019-01-26T02:34:50.884Z,82.76
2019-01-26T02:37:19.313Z,82.82
2019-01-26T02:39:47.633Z,82.77
2019-01-26T02:42:15.983Z,82.62
2019-01-26T02:44:44.333Z,82.35
2019-01-26T02:47:12.646Z,82.44
2019-01-26T02:49:40.922Z,82.41
2019-01-26T02:52:09.338Z,82.41
2019-01-26T02:54:37.717Z,82.37
2019-01-26T02:57:06.017Z,82.28
2019-01-26T02:59:34.304Z,82.39
2019-01-26T03:02:02.608Z,82.45
2019-01-26T03:04:30.894Z,82.55
2019-01-26T03:06:59.249Z,82.25
2019-01-26T03:09:27.565Z,82.33
2019-01-26T03:11:55.984Z,82.42
2019-01-26T03:14:24.250Z,82.51
2019-01-26T03:16:52.568Z,82.56
2019-01-26T03:19:20.920Z,82.32
2019-01-26T03:21:49.232Z,82.57
2019-01-26T03:24:17.547Z,82.76
2019-01-26T03:26:45.823Z,82.87
2019-01-26T03:29:14.101Z,82.92
2019-01-26T03:31:42.448Z,82.91
2019-01-26T03:34:10.786Z,82.81
2019-01-26T03:36:39.092Z,82.88
2019-01-26T03:39:08.137Z,82.85
2019-01-26T03:41:36.421Z,82.90
2019-01-26T03:44:04.676Z,82.93
2019-01-26T03:46:33.060Z,82.75
2019-01-26T03:49:01.410Z,82.78
2019-01-26T03:51:29.761Z,82.71
2019-01-26T03:53:58.073Z,82.86
2019-01-26T03:56:26.331Z,83.12
2019-01-26T03:58:54.610Z,83.21
2019-01-26T04:01:22.931Z,82.96
2019-01-26T04:03:51.215Z,82.90
2019-01-26T04:06:19.489Z,82.70
2019-01-26T04:08:47.821Z,82.78
2019-01-26T04:11:16.094Z,82.90
2019-01-26T04:13:44.366Z,82.97
2019-01-26T04:16:12.708Z,82.94
2019-01-26T04:18:40.976Z,82.81
2019-01-26T04:21:09.279Z,83.00
2019-01-26T04:23:37.592Z,83.20
2019-01-26T04:26:05.879Z,83.02
2019-01-26T04:28:34.184Z,83.03
2019-01-26T04:31:02.474Z,82.99
2019-01-26T04:33:30.772Z,82.94
2019-01-26T04:35:59.068Z,82.82
2019-01-26T04:38:27.390Z,83.04
2019-01-26T04:40:55.660Z,83.05
2019-01-26T04:43:24.125Z,83.02
2019-01-26T04:45:52.445Z,82.53
2019-01-26T04:48:20.814Z,82.51
2019-01-26T04:50:49.160Z,82.33
2019-01-26T04:53:17.482Z,82.39
2019-01-26T04:55:45.868Z,82.37
2019-01-26T04:58:14.154Z,82.32
2019-01-26T05:00:42.494Z,82.21
2019-01-26T05:03:10.834Z,82.10
2019-01-26T05:05:39.113Z,81.90
2019-01-26T05:08:07.430Z,81.84
2019-01-26T05:10:35.698Z,81.77
2019-01-26T05:13:04.014Z,81.91
2019-01-26T05:15:32.332Z,81.98
2019-01-26T05:18:00.598Z,81.89
2019-01-26T05:20:28.882Z,82.01
2019-01-26T05:22:57.216Z,81.97
2019-01-26T05:25:25.499Z,81.76
2019-01-26T05:27:54.155Z,81.70
2019-01-26T05:30:27.155Z,81.63
2019-01-26T05:32:55.479Z,81.66
2019-01-26T05:35:23.750Z,81.40
2019-01-26T05:37:52.078Z,81.14
2019-01-26T05:40:20.434Z,81.22
2019-01-26T05:42:48.705Z,81.53
2019-01-26T05:45:19.628Z,81.51
2019-01-26T05:47:49.626Z,81.55
2019-01-26T05:50:25.325Z,81.36
2019-01-26T05:52:53.617Z,81.24
2019-01-26T05:55:21.897Z,81.33
2019-01-26T05:57:50.212Z,81.34
2019-01-26T06:00:28.611Z,81.00
2019-01-26T06:02:56.923Z,81.35
2019-01-26T06:05:25.201Z,81.44
2019-01-26T06:07:53.474Z,81.48
2019-01-26T06:10:21.801Z,81.65
2019-01-26T06:12:50.059Z,81.66
2019-01-26T06:15:18.347Z,81.57
2019-01-26T06:17:46.652Z,81.70
2019-01-26T06:20:16.394Z,81.81
2019-01-26T06:22:44.648Z,81.83
2019-01-26T06:25:21.076Z,81.70
2019-01-26T06:27:49.637Z,81.45
2019-01-26T06:30:22.772Z,81.44
2019-01-26T06:32:52.061Z,81.42
2019-01-26T06:35:20.508Z,81.54
2019-01-26T06:37:48.978Z,81.57
2019-01-26T06:40:18.720Z,81.83
2019-01-26T06:42:47.011Z,81.79
2019-01-26T06:45:19.786Z,81.75
2019-01-26T06:47:48.103Z,81.78
2019-01-26T06:50:23.309Z,81.62
2019-01-26T06:52:51.688Z,81.80
2019-01-26T06:55:23.111Z,81.78
2019-01-26T06:57:51.386Z,81.88
2019-01-26T07:00:22.408Z,81.83
2019-01-26T07:02:50.692Z,81.57
2019-01-26T07:05:32.599Z,81.38
2019-01-26T07:08:01.011Z,81.29
2019-01-26T07:10:29.284Z,81.17
2019-01-26T07:12:57.597Z,81.16
2019-01-26T07:15:25.981Z,81.01
2019-01-26T07:17:54.250Z,81.12
2019-01-26T07:20:22.585Z,81.08
2019-01-26T07:22:50.958Z,80.94
2019-01-26T07:25:19.503Z,80.70
2019-01-26T07:27:47.822Z,80.60
2019-01-26T07:30:19.421Z,80.49
2019-01-26T07:32:47.705Z,80.67
2019-01-26T07:35:16.022Z,80.51
2019-01-26T07:37:44.308Z,80.40
2019-01-26T07:40:16.077Z,80.45
2019-01-26T07:42:44.407Z,80.30
2019-01-26T07:45:13.650Z,80.11
2019-01-26T07:47:41.940Z,80.00
2019-01-26T07:50:16.444Z,80.11
2019-01-26T07:52:44.715Z,80.01
2019-01-26T07:55:14.631Z,80.15
2019-01-26T07:57:42.956Z,80.47
2019-01-26T08:00:17.440Z,80.41
2019-01-26T08:02:45.712Z,80.03
2019-01-26T08:05:14.027Z,80.33
2019-01-26T08:07:42.323Z,80.37
2019-01-26T08:10:19.422Z,80.38
2019-01-26T08:12:47.752Z,80.30
2019-01-26T08:15:18.876Z,80.22
2019-01-26T08:17:47.199Z,80.47
2019-01-26T08:20:20.261Z,80.46
2019-01-26T08:22:48.548Z,80.58
2019-01-26T08:25:17.410Z,80.30
2019-01-26T08:27:45.710Z,80.15
2019-01-26T08:30:17.194Z,80.00
2019-01-26T08:32:45.539Z,79.67
2019-01-26T08:35:13.891Z,79.55
2019-01-26T08:37:42.183Z,79.27
2019-01-26T08:40:13.136Z,79.87
2019-01-26T08:42:41.477Z,79.34
2019-01-26T08:45:11.925Z,79.04
2019-01-26T08:47:40.301Z,79.23
2019-01-26T08:50:19.956Z,79.47
2019-01-26T08:52:48.271Z,79.31
2019-01-26T08:55:18.367Z,78.48
2019-01-26T08:57:46.570Z,78.50
2019-01-26T09:00:27.405Z,78.71
2019-01-26T09:02:57.311Z,78.28
2019-01-26T09:05:27.259Z,78.22
2019-01-26T09:07:55.589Z,77.92
2019-01-26T09:10:23.873Z,77.98
2019-01-26T09:12:52.169Z,78.51
2019-01-26T09:15:21.152Z,78.15
2019-01-26T09:17:49.454Z,78.24
2019-01-26T09:20:18.035Z,77.89
2019-01-26T09:22:46.348Z,77.55
2019-01-26T09:25:14.710Z,77.68
2019-01-26T09:27:43.089Z,77.76
2019-01-26T09:30:16.621Z,78.09
2019-01-26T09:32:44.913Z,78.12
2019-01-26T09:35:13.370Z,78.13
2019-01-26T09:37:41.690Z,78.44
2019-01-26T09:40:21.001Z,77.80
2019-01-26T09:42:49.313Z,78.16
2019-01-26T09:45:18.934Z,77.83
2019-01-26T09:47:47.496Z,77.87
2019-01-26T09:50:15.951Z,77.34
2019-01-26T09:52:44.250Z,77.31
2019-01-26T09:55:14.872Z,76.92
2019-01-26T09:57:43.180Z,77.78
2019-01-26T10:00:19.958Z,77.65
2019-01-26T10:02:49.272Z,76.49
2019-01-26T10:05:17.686Z,77.02
2019-01-26T10:07:45.969Z,77.26
2019-01-26T10:10:16.695Z,77.35
2019-01-26T10:12:45.893Z,77.14
2019-01-26T10:15:23.657Z,77.54
2019-01-26T10:17:52.091Z,76.82
2019-01-26T10:20:23.375Z,77.10
2019-01-26T10:22:51.679Z,76.73
2019-01-26T10:25:20.195Z,76.30
2019-01-26T10:27:48.489Z,75.97
2019-01-26T10:30:21.186Z,75.43
2019-01-26T10:32:49.474Z,75.39
2019-01-26T10:35:17.742Z,75.09
2019-01-26T10:37:46.278Z,74.31
2019-01-26T10:40:22.406Z,74.23
2019-01-26T10:42:50.710Z,74.13
2019-01-26T10:45:18.990Z,73.54
2019-01-26T10:47:47.319Z,73.48
2019-01-26T10:50:15.630Z,72.55
2019-01-26T10:52:43.903Z,73.25
2019-01-26T10:55:12.193Z,71.68
2019-01-26T10:57:40.495Z,72.36
2019-01-26T11:00:12.027Z,72.08
2019-01-26T11:02:40.512Z,72.11
2019-01-26T11:05:09.190Z,71.62
2019-01-26T11:07:37.467Z,71.30
2019-01-26T11:10:09.032Z,71.13
2019-01-26T11:12:37.340Z,71.47
2019-01-26T11:15:08.866Z,71.15
2019-01-26T11:17:37.146Z,71.00
2019-01-26T11:20:11.186Z,71.03
2019-01-26T11:22:39.475Z,70.61
2019-01-26T11:25:10.376Z,70.69
2019-01-26T11:27:38.683Z,70.53
2019-01-26T11:30:18.304Z,70.56
2019-01-26T11:32:46.622Z,70.42
2019-01-26T11:35:19.626Z,70.42
2019-01-26T11:37:47.919Z,70.11
2019-01-26T11:40:19.146Z,70.17
2019-01-26T11:42:47.403Z,69.59
2019-01-26T11:45:27.697Z,70.28
2019-01-26T11:47:57.605Z,70.31
2019-01-26T11:50:36.429Z,69.46
2019-01-26T11:53:04.791Z,68.62
2019-01-26T11:55:34.806Z,68.55
2019-01-26T11:58:03.155Z,68.46
2019-01-26T12:00:45.217Z,67.86
2019-01-26T12:03:17.837Z,68.04
2019-01-26T12:05:47.749Z,67.37
2019-01-26T12:08:16.041Z,67.62
2019-01-26T12:10:44.344Z,67.25
2019-01-26T12:13:12.620Z,67.55
2019-01-26T12:15:40.896Z,67.55
2019-01-26T12:18:09.204Z,67.24
2019-01-26T12:20:37.474Z,67.50
2019-01-26T12:23:05.810Z,66.92
2019-01-26T12:25:34.131Z,66.91
2019-01-26T12:28:02.401Z,67.14
2019-01-26T12:30:30.689Z,66.61
2019-01-26T12:32:59.000Z,66.36
2019-01-26T12:35:27.349Z,65.94
2019-01-26T12:37:55.625Z,66.76
2019-01-26T12:40:23.928Z,65.64
2019-01-26T12:42:52.216Z,65.64
2019-01-26T12:45:21.538Z,66.31
2019-01-26T12:47:49.847Z,65.57
2019-01-26T12:50:18.479Z,66.35
2019-01-26T12:52:46.752Z,66.19
2019-01-26T12:55:16.798Z,65.33
2019-01-26T12:57:46.540Z,65.38
2019-01-26T13:00:27.548Z,65.38
2019-01-26T13:02:55.840Z,65.30
2019-01-26T13:05:24.106Z,64.91
2019-01-26T13:07:52.417Z,65.08
2019-01-26T13:10:39.199Z,65.17
2019-01-26T13:13:07.528Z,65.17
2019-01-26T13:15:36.076Z,65.60
2019-01-26T13:18:04.439Z,64.71
2019-01-26T13:20:32.823Z,63.96
2019-01-26T13:23:01.169Z,64.87
2019-01-26T13:25:29.456Z,64.97
2019-01-26T13:27:57.901Z,65.46
2019-01-26T13:30:26.236Z,65.44
2019-01-26T13:32:54.534Z,65.73
2019-01-26T13:35:23.770Z,64.53
2019-01-26T13:37:52.184Z,65.87
2019-01-26T13:40:26.447Z,66.27
2019-01-26T13:42:54.847Z,65.93
2019-01-26T13:45:23.195Z,65.47
2019-01-26T13:47:51.490Z,65.47
2019-01-26T13:50:19.894Z,66.25
2019-01-26T13:52:48.176Z,66.32
2019-01-26T13:55:21.455Z,66.53
2019-01-26T13:57:49.794Z,66.86
2019-01-26T14:00:32.522Z,67.22
2019-01-26T14:03:00.952Z,67.71
2019-01-26T14:05:29.328Z,67.23
2019-01-26T14:07:57.627Z,67.01
2019-01-26T14:10:26.204Z,66.43
2019-01-26T14:12:54.491Z,67.19
2019-01-26T14:15:23.113Z,66.57
2019-01-26T14:17:51.491Z,66.73
2019-01-26T14:20:25.682Z,66.64
2019-01-26T14:22:53.955Z,65.85
2019-01-26T14:25:22.275Z,66.42
2019-01-26T14:27:50.634Z,66.28
2019-01-26T14:30:34.259Z,66.01
2019-01-26T14:33:02.654Z,65.97
2019-01-26T14:35:30.929Z,66.45
2019-01-26T14:37:59.246Z,66.57
2019-01-26T14:40:27.527Z,66.33
2019-01-26T14:42:55.809Z,66.46
2019-01-26T14:45:24.150Z,66.67
2019-01-26T14:47:54.659Z,66.96
2019-01-26T14:50:24.330Z,66.40
2019-01-26T14:52:52.738Z,66.50
2019-01-26T14:55:23.689Z,67.34
2019-01-26T14:57:51.966Z,66.78
2019-01-26T15:00:28.998Z,66.83
2019-01-26T15:02:57.319Z,66.72
2019-01-26T15:05:25.739Z,66.76
2019-01-26T15:07:54.119Z,67.23
2019-01-26T15:10:22.397Z,67.29
2019-01-26T15:12:50.798Z,67.67
2019-01-26T15:15:20.749Z,67.88
2019-01-26T15:17:49.123Z,67.99
2019-01-26T15:20:20.653Z,68.44
2019-01-26T15:22:48.982Z,68.76
2019-01-26T15:25:17.258Z,68.54
2019-01-26T15:27:45.531Z,68.99
2019-01-26T15:30:19.557Z,69.11
2019-01-26T15:32:47.840Z,69.24
2019-01-26T15:35:16.105Z,69.47
2019-01-26T15:37:44.551Z,69.50
2019-01-26T15:40:13.465Z,69.26
2019-01-26T15:42:41.832Z,69.68
2019-01-26T15:45:13.401Z,69.42
2019-01-26T15:47:41.771Z,69.50
2019-01-26T15:50:13.195Z,69.72
2019-01-26T15:52:41.863Z,69.77
2019-01-26T15:55:15.527Z,69.97
2019-01-26T15:57:43.927Z,70.30
2019-01-26T16:00:15.495Z,70.30
2019-01-26T16:02:43.785Z,70.33
2019-01-26T16:05:12.474Z,70.84
2019-01-26T16:07:41.064Z,70.23
2019-01-26T16:10:18.115Z,70.54
2019-01-26T16:12:46.490Z,70.78
2019-01-26T16:15:23.459Z,70.94
2019-01-26T16:17:52.238Z,70.88
2019-01-26T16:20:21.271Z,71.27
2019-01-26T16:22:49.575Z,71.20
2019-01-26T16:25:17.880Z,70.73
2019-01-26T16:27:46.161Z,70.69
2019-01-26T16:30:17.345Z,70.99
2019-01-26T16:32:45.674Z,71.07
2019-01-26T16:35:15.598Z,71.24
2019-01-26T16:37:44.104Z,71.19
2019-01-26T16:40:15.945Z,70.87
2019-01-26T16:42:44.262Z,70.65
2019-01-26T16:45:15.858Z,70.58
2019-01-26T16:47:44.176Z,70.91
2019-01-26T16:50:18.152Z,70.84
2019-01-26T16:52:46.446Z,70.87
2019-01-26T16:55:15.864Z,71.04
2019-01-26T16:57:44.298Z,71.53
2019-01-26T17:00:21.591Z,71.21
2019-01-26T17:02:49.875Z,71.17
2019-01-26T17:05:18.182Z,71.13
2019-01-26T17:07:46.584Z,70.59
2019-01-26T17:10:19.996Z,70.65
2019-01-26T17:12:48.287Z,70.68
2019-01-26T17:15:16.655Z,70.84
2019-01-26T17:17:45.004Z,70.74
2019-01-26T17:20:22.352Z,70.75
2019-01-26T17:22:50.727Z,70.95
2019-01-26T17:25:19.007Z,71.18
2019-01-26T17:27:47.397Z,71.54
2019-01-26T17:30:18.516Z,71.24
2019-01-26T17:32:46.832Z,71.52
2019-01-26T17:35:15.155Z,71.79
2019-01-26T17:37:43.454Z,71.47
2019-01-26T17:40:17.908Z,71.72
2019-01-26T17:42:46.248Z,71.83
2019-01-26T17:45:16.194Z,71.30
2019-01-26T17:47:44.567Z,71.59
2019-01-26T17:50:15.679Z,71.67
2019-01-26T17:52:43.967Z,72.06
2019-01-26T17:55:12.388Z,72.26
2019-01-26T17:57:40.944Z,71.93
2019-01-26T18:00:12.630Z,72.19
2019-01-26T18:02:40.946Z,72.03
2019-01-26T18:05:11.073Z,72.48
2019-01-26T18:07:39.439Z,72.72
2019-01-26T18:10:11.002Z,72.93
2019-01-26T18:12:39.320Z,72.74
2019-01-26T18:15:10.971Z,72.23
2019-01-26T18:17:39.266Z,72.18
2019-01-26T18:20:10.883Z,72.41
2019-01-26T18:22:39.245Z,72.50
2019-01-26T18:25:08.969Z,72.54
2019-01-26T18:27:38.861Z,72.71
2019-01-26T18:30:10.767Z,72.89
2019-01-26T18:32:39.130Z,73.02
2019-01-26T18:35:10.708Z,72.64
2019-01-26T18:37:39.178Z,72.04
2019-01-26T18:40:16.674Z,72.57
2019-01-26T18:42:44.969Z,72.62
2019-01-26T18:45:18.884Z,72.88
2019-01-26T18:47:47.216Z,72.74
2019-01-26T18:50:20.789Z,72.67
2019-01-26T18:52:49.208Z,73.20
2019-01-26T18:55:17.543Z,73.30
2019-01-26T18:57:46.197Z,73.20
2019-01-26T19:00:17.703Z,73.43
2019-01-26T19:02:47.787Z,73.50
2019-01-26T19:05:19.119Z,73.42
2019-01-26T19:07:47.421Z,73.54
2019-01-26T19:10:15.747Z,73.59
2019-01-26T19:12:44.041Z,73.17
2019-01-26T19:15:18.570Z,73.15
2019-01-26T19:17:46.893Z,73.37
2019-01-26T19:20:15.929Z,73.95
2019-01-26T19:22:44.228Z,74.16
2019-01-26T19:25:14.988Z,74.24
2019-01-26T19:27:43.343Z,73.47
2019-01-26T19:30:14.827Z,73.18
2019-01-26T19:32:43.161Z,73.36
2019-01-26T19:35:11.834Z,73.38
2019-01-26T19:37:40.111Z,73.72
2019-01-26T19:40:18.810Z,73.15
2019-01-26T19:42:47.159Z,73.67
2019-01-26T19:45:17.997Z,73.27
2019-01-26T19:47:46.410Z,72.91
2019-01-26T19:50:17.335Z,73.47
2019-01-26T19:52:45.696Z,73.56
2019-01-26T19:55:15.146Z,73.55
2019-01-26T19:57:43.518Z,73.52
2019-01-26T20:00:11.869Z,73.39
2019-01-26T20:02:40.191Z,73.19
2019-01-26T20:05:11.882Z,73.16
2019-01-26T20:07:40.181Z,73.08
2019-01-26T20:10:10.232Z,73.41
2019-01-26T20:12:38.744Z,73.41
2019-01-26T20:15:12.936Z,72.52
2019-01-26T20:17:41.251Z,72.51
2019-01-26T20:20:15.826Z,72.40
2019-01-26T20:22:44.115Z,72.57
2019-01-26T20:25:12.454Z,72.32
2019-01-26T20:27:40.925Z,72.20
2019-01-26T20:30:18.407Z,72.41
2019-01-26T20:32:46.702Z,72.10
2019-01-26T20:35:14.994Z,72.29
2019-01-26T20:37:43.437Z,72.49
2019-01-26T20:40:14.576Z,72.44
2019-01-26T20:42:42.875Z,72.37
2019-01-26T20:45:14.452Z,72.29
2019-01-26T20:47:42.804Z,72.28
2019-01-26T20:50:13.338Z,72.31
2019-01-26T20:52:42.994Z,72.40
2019-01-26T20:55:12.826Z,72.36
2019-01-26T20:57:41.105Z,72.38
2019-01-26T21:00:18.269Z,72.30
2019-01-26T21:02:46.557Z,71.74
2019-01-26T21:05:14.839Z,71.59
2019-01-26T21:07:43.217Z,71.70
2019-01-26T21:10:19.610Z,71.87
2019-01-26T21:12:48.883Z,71.94
2019-01-26T21:15:17.278Z,71.68
2019-01-26T21:17:45.579Z,71.88
2019-01-26T21:20:17.161Z,72.03
2019-01-26T21:22:45.455Z,72.21
2019-01-26T21:25:14.281Z,72.04
2019-01-26T21:27:42.636Z,72.08
2019-01-26T21:30:17.638Z,72.33
2019-01-26T21:32:47.892Z,72.08
2019-01-26T21:35:16.163Z,72.33
2019-01-26T21:37:44.451Z,71.88
2019-01-26T21:40:18.721Z,71.62
2019-01-26T21:42:46.995Z,71.68
2019-01-26T21:45:16.320Z,71.79
2019-01-26T21:47:44.638Z,71.66
2019-01-26T21:50:19.015Z,71.92
2019-01-26T21:52:47.304Z,72.12
2019-01-26T21:55:15.641Z,72.05
2019-01-26T21:57:43.938Z,72.31
2019-01-26T22:00:23.629Z,72.38
2019-01-26T22:02:51.917Z,72.08
2019-01-26T22:05:20.185Z,71.72
2019-01-26T22:07:48.505Z,71.79
2019-01-26T22:10:21.976Z,72.12
2019-01-26T22:12:50.248Z,72.09
2019-01-26T22:15:20.530Z,72.19
2019-01-26T22:17:48.895Z,72.62
2019-01-26T22:20:19.330Z,72.51
2019-01-26T22:22:48.730Z,72.57
2019-01-26T22:25:16.988Z,73.04
2019-01-26T22:27:45.318Z,72.76
2019-01-26T22:30:16.764Z,72.66
2019-01-26T22:32:45.320Z,72.85
2019-01-26T22:35:13.602Z,72.93
2019-01-26T22:37:41.928Z,72.66
2019-01-26T22:40:13.610Z,72.96
2019-01-26T22:42:41.999Z,73.17
2019-01-26T22:45:11.987Z,72.78
2019-01-26T22:47:40.339Z,72.65
2019-01-26T22:50:11.871Z,72.51
2019-01-26T22:52:40.185Z,72.31
2019-01-26T22:55:11.213Z,71.77
2019-01-26T22:57:39.496Z,71.42
2019-01-26T23:00:38.642Z,71.10
2019-01-26T23:03:09.774Z,71.09
2019-01-26T23:05:57.570Z,71.26
2019-01-26T23:08:29.108Z,71.49
2019-01-26T23:11:06.002Z,71.54
2019-01-26T23:13:35.546Z,71.64
2019-01-26T23:16:15.966Z,71.83
2019-01-26T23:19:05.543Z,72.07
2019-01-26T23:21:53.497Z,72.32
2019-01-26T23:24:59.656Z,72.18
2019-01-26T23:27:37.258Z,72.21
2019-01-26T23:30:21.180Z,72.22
2019-01-26T23:32:49.584Z,72.24
2019-01-26T23:35:17.863Z,72.40
2019-01-26T23:37:46.154Z,71.94
2019-01-26T23:40:14.476Z,71.77
2019-01-26T23:42:42.797Z,71.68
2019-01-26T23:45:11.102Z,71.70
2019-01-26T23:47:39.418Z,71.76
2019-01-26T23:50:08.994Z,72.49
2019-01-26T23:52:37.273Z,73.02
2019-01-26T23:55:08.038Z,73.51
2019-01-26T23:57:36.343Z,73.27
